sensor_id;sensor_type;location;lat;lon;timestamp;temperature;humidity
44509;DHT22;30214;52.246;14.408;2023-06-10T00:01:30;18.10;99.90
44509;DHT22;30214;52.246;14.408;2023-06-10T00:03:57;18.10;99.90
44509;DHT22;30214;52.246;14.408;2023-06-10T00:06:28;18.00;99.90
44509;DHT22;30214;52.246;14.408;2023-06-10T00:09:03;18.00;99.90
44509;DHT22;30214;52.246;14.408;2023-06-10T00:11:33;18.00;99.90
44509;DHT22;30214;52.246;14.408;2023-06-10T00:14:02;18.00;99.90
44509;DHT22;30214;52.246;14.408;2023-06-10T00:16:35;17.90;99.90
44509;DHT22;30214;52.246;14.408;2023-06-10T00:19:07;17.90;99.90
44509;DHT22;30214;52.246;14.408;2023-06-10T00:21:39;17.80;99.90
44509;DHT22;30214;52.246;14.408;2023-06-10T00:24:08;17.80;99.90
44509;DHT22;30214;52.246;14.408;2023-06-10T00:26:43;17.70;99.90
44509;DHT22;30214;52.246;14.408;2023-06-10T00:29:12;17.70;99.90
44509;DHT22;30214;52.246;14.408;2023-06-10T00:31:40;17.70;99.90
44509;DHT22;30214;52.246;14.408;2023-06-10T00:34:07;17.60;99.90
44509;DHT22;30214;52.246;14.408;2023-06-10T00:36:34;17.70;99.90
44509;DHT22;30214;52.246;14.408;2023-06-10T00:39:03;17.60;99.90
44509;DHT22;30214;52.246;14.408;2023-06-10T00:41:30;17.50;99.90
44509;DHT22;30214;52.246;14.408;2023-06-10T00:43:59;17.50;99.90
44509;DHT22;30214;52.246;14.408;2023-06-10T00:46:27;17.50;99.90
44509;DHT22;30214;52.246;14.408;2023-06-10T00:48:55;17.60;99.90
44509;DHT22;30214;52.246;14.408;2023-06-10T00:51:23;17.60;99.90
44509;DHT22;30214;52.246;14.408;2023-06-10T00:53:51;17.50;99.90
44509;DHT22;30214;52.246;14.408;2023-06-10T00:56:20;17.40;99.90
44509;DHT22;30214;52.246;14.408;2023-06-10T00:58:48;17.40;99.90
44509;DHT22;30214;52.246;14.408;2023-06-10T01:01:15;17.40;99.90
44509;DHT22;30214;52.246;14.408;2023-06-10T01:03:42;17.40;99.90
44509;DHT22;30214;52.246;14.408;2023-06-10T01:06:17;17.40;99.90
44509;DHT22;30214;52.246;14.408;2023-06-10T01:08:50;17.40;99.90
44509;DHT22;30214;52.246;14.408;2023-06-10T01:11:23;17.40;99.90
44509;DHT22;30214;52.246;14.408;2023-06-10T01:13:53;17.40;99.90
44509;DHT22;30214;52.246;14.408;2023-06-10T01:16:21;17.40;99.90
44509;DHT22;30214;52.246;14.408;2023-06-10T01:18:48;17.40;99.90
44509;DHT22;30214;52.246;14.408;2023-06-10T01:21:20;17.30;99.90
44509;DHT22;30214;52.246;14.408;2023-06-10T01:23:50;17.30;99.90
44509;DHT22;30214;52.246;14.408;2023-06-10T01:26:20;17.20;99.90
44509;DHT22;30214;52.246;14.408;2023-06-10T01:28:54;17.20;99.90
44509;DHT22;30214;52.246;14.408;2023-06-10T01:31:30;17.10;99.90
44509;DHT22;30214;52.246;14.408;2023-06-10T01:34:03;17.10;99.90
44509;DHT22;30214;52.246;14.408;2023-06-10T01:36:35;17.10;99.90
44509;DHT22;30214;52.246;14.408;2023-06-10T01:39:03;17.10;99.90
44509;DHT22;30214;52.246;14.408;2023-06-10T01:41:32;17.00;99.90
44509;DHT22;30214;52.246;14.408;2023-06-10T01:43:59;17.00;99.90
44509;DHT22;30214;52.246;14.408;2023-06-10T01:46:26;16.90;99.90
44509;DHT22;30214;52.246;14.408;2023-06-10T01:48:53;16.90;99.90
44509;DHT22;30214;52.246;14.408;2023-06-10T01:51:20;16.80;99.90
44509;DHT22;30214;52.246;14.408;2023-06-10T01:53:48;16.80;99.90
44509;DHT22;30214;52.246;14.408;2023-06-10T01:56:15;16.70;99.90
44509;DHT22;30214;52.246;14.408;2023-06-10T01:58:45;16.70;99.90
44509;DHT22;30214;52.246;14.408;2023-06-10T02:01:12;16.60;99.90
44509;DHT22;30214;52.246;14.408;2023-06-10T02:03:39;16.60;99.90
44509;DHT22;30214;52.246;14.408;2023-06-10T02:06:08;16.50;99.90
44509;DHT22;30214;52.246;14.408;2023-06-10T02:08:35;16.50;99.90
44509;DHT22;30214;52.246;14.408;2023-06-10T02:11:03;16.50;99.90
44509;DHT22;30214;52.246;14.408;2023-06-10T02:13:30;16.30;99.90
44509;DHT22;30214;52.246;14.408;2023-06-10T02:15:58;16.30;99.90
44509;DHT22;30214;52.246;14.408;2023-06-10T02:18:45;16.30;99.90
44509;DHT22;30214;52.246;14.408;2023-06-10T02:21:12;16.20;99.90
44509;DHT22;30214;52.246;14.408;2023-06-10T02:23:39;16.20;99.90
44509;DHT22;30214;52.246;14.408;2023-06-10T02:26:07;16.10;99.90
44509;DHT22;30214;52.246;14.408;2023-06-10T02:28:34;16.10;99.90
44509;DHT22;30214;52.246;14.408;2023-06-10T02:31:01;16.10;99.90
44509;DHT22;30214;52.246;14.408;2023-06-10T02:33:28;16.10;99.90
44509;DHT22;30214;52.246;14.408;2023-06-10T02:35:56;16.00;99.90
44509;DHT22;30214;52.246;14.408;2023-06-10T02:38:23;16.00;99.90
44509;DHT22;30214;52.246;14.408;2023-06-10T02:40:51;16.00;99.90
44509;DHT22;30214;52.246;14.408;2023-06-10T02:43:19;15.90;99.90
44509;DHT22;30214;52.246;14.408;2023-06-10T02:45:47;16.00;99.90
44509;DHT22;30214;52.246;14.408;2023-06-10T02:48:15;16.00;99.90
44509;DHT22;30214;52.246;14.408;2023-06-10T02:50:42;15.90;99.90
44509;DHT22;30214;52.246;14.408;2023-06-10T02:53:32;15.80;99.90
44509;DHT22;30214;52.246;14.408;2023-06-10T02:56:05;15.80;99.90
44509;DHT22;30214;52.246;14.408;2023-06-10T02:58:33;15.80;99.90
44509;DHT22;30214;52.246;14.408;2023-06-10T03:01:01;15.90;99.90
44509;DHT22;30214;52.246;14.408;2023-06-10T03:03:35;15.90;99.90
44509;DHT22;30214;52.246;14.408;2023-06-10T03:06:08;15.90;99.90
44509;DHT22;30214;52.246;14.408;2023-06-10T03:08:36;16.00;99.90
44509;DHT22;30214;52.246;14.408;2023-06-10T03:11:07;16.00;99.90
44509;DHT22;30214;52.246;14.408;2023-06-10T03:13:37;15.90;99.90
44509;DHT22;30214;52.246;14.408;2023-06-10T03:16:05;15.80;99.90
44509;DHT22;30214;52.246;14.408;2023-06-10T03:18:36;15.70;99.90
44509;DHT22;30214;52.246;14.408;2023-06-10T03:21:03;15.70;99.90
44509;DHT22;30214;52.246;14.408;2023-06-10T03:23:30;15.70;99.90
44509;DHT22;30214;52.246;14.408;2023-06-10T03:25:57;15.60;99.90
44509;DHT22;30214;52.246;14.408;2023-06-10T03:28:24;15.60;99.90
44509;DHT22;30214;52.246;14.408;2023-06-10T03:30:53;15.60;99.90
44509;DHT22;30214;52.246;14.408;2023-06-10T03:33:22;15.60;99.90
44509;DHT22;30214;52.246;14.408;2023-06-10T03:35:50;15.80;99.90
44509;DHT22;30214;52.246;14.408;2023-06-10T03:38:18;16.00;99.90
44509;DHT22;30214;52.246;14.408;2023-06-10T03:40:45;16.30;99.90
44509;DHT22;30214;52.246;14.408;2023-06-10T03:43:12;16.50;99.90
44509;DHT22;30214;52.246;14.408;2023-06-10T03:45:39;16.60;99.90
44509;DHT22;30214;52.246;14.408;2023-06-10T03:48:08;16.60;99.90
44509;DHT22;30214;52.246;14.408;2023-06-10T03:50:43;16.80;99.90
44509;DHT22;30214;52.246;14.408;2023-06-10T03:53:10;17.00;99.90
44509;DHT22;30214;52.246;14.408;2023-06-10T03:55:39;17.20;99.90
44509;DHT22;30214;52.246;14.408;2023-06-10T03:58:06;17.30;99.90
44509;DHT22;30214;52.246;14.408;2023-06-10T04:00:33;17.50;99.90
44509;DHT22;30214;52.246;14.408;2023-06-10T04:03:08;17.70;99.90
44509;DHT22;30214;52.246;14.408;2023-06-10T04:05:41;17.70;99.90
44509;DHT22;30214;52.246;14.408;2023-06-10T04:08:09;17.90;99.90
44509;DHT22;30214;52.246;14.408;2023-06-10T04:10:36;18.20;99.90
44509;DHT22;30214;52.246;14.408;2023-06-10T04:13:03;18.10;99.90
44509;DHT22;30214;52.246;14.408;2023-06-10T04:15:37;18.10;99.90
44509;DHT22;30214;52.246;14.408;2023-06-10T04:18:09;18.30;99.90
44509;DHT22;30214;52.246;14.408;2023-06-10T04:20:36;18.50;99.90
44509;DHT22;30214;52.246;14.408;2023-06-10T04:23:03;18.60;99.90
44509;DHT22;30214;52.246;14.408;2023-06-10T04:25:31;18.50;99.90
44509;DHT22;30214;52.246;14.408;2023-06-10T04:27:58;18.70;99.90
44509;DHT22;30214;52.246;14.408;2023-06-10T04:30:25;18.70;99.90
44509;DHT22;30214;52.246;14.408;2023-06-10T04:32:52;18.80;99.90
44509;DHT22;30214;52.246;14.408;2023-06-10T04:35:20;18.80;99.90
44509;DHT22;30214;52.246;14.408;2023-06-10T04:37:48;18.90;99.90
44509;DHT22;30214;52.246;14.408;2023-06-10T04:40:15;18.80;99.90
44509;DHT22;30214;52.246;14.408;2023-06-10T04:42:42;18.80;99.90
44509;DHT22;30214;52.246;14.408;2023-06-10T04:45:10;19.10;99.90
44509;DHT22;30214;52.246;14.408;2023-06-10T04:47:37;19.40;99.90
44509;DHT22;30214;52.246;14.408;2023-06-10T04:50:05;19.50;99.90
44509;DHT22;30214;52.246;14.408;2023-06-10T04:52:34;19.60;99.90
44509;DHT22;30214;52.246;14.408;2023-06-10T04:55:01;19.80;99.90
44509;DHT22;30214;52.246;14.408;2023-06-10T04:57:28;19.90;99.90
44509;DHT22;30214;52.246;14.408;2023-06-10T04:59:55;19.90;99.90
44509;DHT22;30214;52.246;14.408;2023-06-10T05:02:22;20.00;99.90
44509;DHT22;30214;52.246;14.408;2023-06-10T05:04:48;20.00;99.90
44509;DHT22;30214;52.246;14.408;2023-06-10T05:07:15;20.10;99.90
44509;DHT22;30214;52.246;14.408;2023-06-10T05:09:44;20.00;99.90
44509;DHT22;30214;52.246;14.408;2023-06-10T05:12:11;19.80;99.90
44509;DHT22;30214;52.246;14.408;2023-06-10T05:14:38;19.40;99.90
44509;DHT22;30214;52.246;14.408;2023-06-10T05:17:05;19.60;99.90
44509;DHT22;30214;52.246;14.408;2023-06-10T05:19:32;19.70;99.90
44509;DHT22;30214;52.246;14.408;2023-06-10T05:22:01;19.90;99.90
44509;DHT22;30214;52.246;14.408;2023-06-10T05:24:28;20.00;99.90
44509;DHT22;30214;52.246;14.408;2023-06-10T05:26:56;20.20;99.90
44509;DHT22;30214;52.246;14.408;2023-06-10T05:29:23;20.50;99.90
44509;DHT22;30214;52.246;14.408;2023-06-10T05:31:51;20.70;99.90
44509;DHT22;30214;52.246;14.408;2023-06-10T05:34:18;21.00;99.90
44509;DHT22;30214;52.246;14.408;2023-06-10T05:36:45;21.30;99.90
44509;DHT22;30214;52.246;14.408;2023-06-10T05:39:12;21.40;99.90
44509;DHT22;30214;52.246;14.408;2023-06-10T05:41:39;20.90;99.90
44509;DHT22;30214;52.246;14.408;2023-06-10T05:44:07;20.40;99.90
44509;DHT22;30214;52.246;14.408;2023-06-10T05:46:34;20.40;99.90
44509;DHT22;30214;52.246;14.408;2023-06-10T05:49:01;20.50;99.90
44509;DHT22;30214;52.246;14.408;2023-06-10T05:51:28;20.20;99.90
44509;DHT22;30214;52.246;14.408;2023-06-10T05:53:55;20.00;99.90
44509;DHT22;30214;52.246;14.408;2023-06-10T05:56:22;20.10;99.90
44509;DHT22;30214;52.246;14.408;2023-06-10T05:58:51;20.20;99.90
44509;DHT22;30214;52.246;14.408;2023-06-10T06:01:20;20.30;99.90
44509;DHT22;30214;52.246;14.408;2023-06-10T06:03:47;20.20;99.90
44509;DHT22;30214;52.246;14.408;2023-06-10T06:06:14;20.20;99.90
44509;DHT22;30214;52.246;14.408;2023-06-10T06:08:41;20.30;99.90
44509;DHT22;30214;52.246;14.408;2023-06-10T06:11:07;20.20;99.90
44509;DHT22;30214;52.246;14.408;2023-06-10T06:13:34;20.20;99.90
44509;DHT22;30214;52.246;14.408;2023-06-10T06:16:01;20.20;99.90
44509;DHT22;30214;52.246;14.408;2023-06-10T06:18:29;20.40;99.90
44509;DHT22;30214;52.246;14.408;2023-06-10T06:20:56;20.70;99.90
44509;DHT22;30214;52.246;14.408;2023-06-10T06:23:23;21.00;99.90
44509;DHT22;30214;52.246;14.408;2023-06-10T06:25:50;20.90;99.90
44509;DHT22;30214;52.246;14.408;2023-06-10T06:28:17;21.00;99.90
44509;DHT22;30214;52.246;14.408;2023-06-10T06:30:46;21.10;99.90
44509;DHT22;30214;52.246;14.408;2023-06-10T06:33:13;21.20;99.90
44509;DHT22;30214;52.246;14.408;2023-06-10T06:35:42;21.00;99.90
44509;DHT22;30214;52.246;14.408;2023-06-10T06:38:08;20.70;99.90
44509;DHT22;30214;52.246;14.408;2023-06-10T06:40:36;20.50;99.90
44509;DHT22;30214;52.246;14.408;2023-06-10T06:43:03;20.50;99.90
44509;DHT22;30214;52.246;14.408;2023-06-10T06:45:42;20.40;99.90
44509;DHT22;30214;52.246;14.408;2023-06-10T06:48:08;20.30;99.90
44509;DHT22;30214;52.246;14.408;2023-06-10T06:50:36;20.30;99.90
44509;DHT22;30214;52.246;14.408;2023-06-10T06:53:08;20.80;99.90
44509;DHT22;30214;52.246;14.408;2023-06-10T06:55:35;21.20;99.90
44509;DHT22;30214;52.246;14.408;2023-06-10T06:58:02;21.30;99.90
44509;DHT22;30214;52.246;14.408;2023-06-10T07:00:29;21.30;99.90
44509;DHT22;30214;52.246;14.408;2023-06-10T07:02:56;21.50;99.90
44509;DHT22;30214;52.246;14.408;2023-06-10T07:05:24;21.60;99.90
44509;DHT22;30214;52.246;14.408;2023-06-10T07:07:52;21.90;99.90
44509;DHT22;30214;52.246;14.408;2023-06-10T07:10:22;22.10;99.90
44509;DHT22;30214;52.246;14.408;2023-06-10T07:12:50;22.50;99.90
44509;DHT22;30214;52.246;14.408;2023-06-10T07:15:18;22.60;99.90
44509;DHT22;30214;52.246;14.408;2023-06-10T07:17:45;22.80;99.90
44509;DHT22;30214;52.246;14.408;2023-06-10T07:20:12;22.80;99.90
44509;DHT22;30214;52.246;14.408;2023-06-10T07:22:40;22.60;99.90
44509;DHT22;30214;52.246;14.408;2023-06-10T07:25:08;22.70;99.90
44509;DHT22;30214;52.246;14.408;2023-06-10T07:27:36;22.80;99.90
44509;DHT22;30214;52.246;14.408;2023-06-10T07:30:04;22.70;99.80
44509;DHT22;30214;52.246;14.408;2023-06-10T07:32:32;22.90;99.70
44509;DHT22;30214;52.246;14.408;2023-06-10T07:34:59;23.10;99.50
44509;DHT22;30214;52.246;14.408;2023-06-10T07:37:27;23.50;98.70
44509;DHT22;30214;52.246;14.408;2023-06-10T07:39:54;23.60;98.30
44509;DHT22;30214;52.246;14.408;2023-06-10T07:42:21;23.40;97.70
44509;DHT22;30214;52.246;14.408;2023-06-10T07:44:49;23.50;97.00
44509;DHT22;30214;52.246;14.408;2023-06-10T07:47:16;23.50;97.40
44509;DHT22;30214;52.246;14.408;2023-06-10T07:49:43;23.30;95.00
44509;DHT22;30214;52.246;14.408;2023-06-10T07:52:10;23.10;94.90
44509;DHT22;30214;52.246;14.408;2023-06-10T07:54:37;23.20;95.20
44509;DHT22;30214;52.246;14.408;2023-06-10T07:57:05;23.50;94.20
44509;DHT22;30214;52.246;14.408;2023-06-10T07:59:32;23.60;93.40
44509;DHT22;30214;52.246;14.408;2023-06-10T08:02:00;24.10;93.50
44509;DHT22;30214;52.246;14.408;2023-06-10T08:04:27;24.40;91.10
44509;DHT22;30214;52.246;14.408;2023-06-10T08:06:56;24.10;91.60
44509;DHT22;30214;52.246;14.408;2023-06-10T08:09:23;24.00;92.70
44509;DHT22;30214;52.246;14.408;2023-06-10T08:11:50;23.70;92.30
44509;DHT22;30214;52.246;14.408;2023-06-10T08:14:17;23.60;92.70
44509;DHT22;30214;52.246;14.408;2023-06-10T08:16:44;23.50;92.20
44509;DHT22;30214;52.246;14.408;2023-06-10T08:19:12;23.40;92.50
44509;DHT22;30214;52.246;14.408;2023-06-10T08:21:39;23.60;92.30
44509;DHT22;30214;52.246;14.408;2023-06-10T08:24:06;24.10;91.30
44509;DHT22;30214;52.246;14.408;2023-06-10T08:26:33;24.30;90.80
44509;DHT22;30214;52.246;14.408;2023-06-10T08:29:00;24.60;90.00
44509;DHT22;30214;52.246;14.408;2023-06-10T08:31:28;24.80;88.60
44509;DHT22;30214;52.246;14.408;2023-06-10T08:33:55;25.00;87.40
44509;DHT22;30214;52.246;14.408;2023-06-10T08:36:24;25.10;86.30
44509;DHT22;30214;52.246;14.408;2023-06-10T08:38:50;24.90;83.90
44509;DHT22;30214;52.246;14.408;2023-06-10T08:41:18;24.80;86.70
44509;DHT22;30214;52.246;14.408;2023-06-10T08:43:51;24.70;82.00
44509;DHT22;30214;52.246;14.408;2023-06-10T08:46:21;24.60;82.40
44509;DHT22;30214;52.246;14.408;2023-06-10T08:48:49;24.70;79.70
44509;DHT22;30214;52.246;14.408;2023-06-10T08:51:20;24.80;77.70
44509;DHT22;30214;52.246;14.408;2023-06-10T08:54:01;24.70;81.70
44509;DHT22;30214;52.246;14.408;2023-06-10T08:56:29;24.70;79.50
44509;DHT22;30214;52.246;14.408;2023-06-10T08:58:57;24.60;80.00
44509;DHT22;30214;52.246;14.408;2023-06-10T09:01:26;24.60;78.40
44509;DHT22;30214;52.246;14.408;2023-06-10T09:03:53;24.80;78.90
44509;DHT22;30214;52.246;14.408;2023-06-10T09:06:21;24.90;78.70
44509;DHT22;30214;52.246;14.408;2023-06-10T09:08:48;24.80;77.40
44509;DHT22;30214;52.246;14.408;2023-06-10T09:11:18;25.00;80.00
44509;DHT22;30214;52.246;14.408;2023-06-10T09:13:45;25.00;75.70
44509;DHT22;30214;52.246;14.408;2023-06-10T09:16:12;24.70;74.60
44509;DHT22;30214;52.246;14.408;2023-06-10T09:18:39;24.50;76.20
44509;DHT22;30214;52.246;14.408;2023-06-10T09:21:06;24.40;79.20
44509;DHT22;30214;52.246;14.408;2023-06-10T09:23:33;24.30;77.50
44509;DHT22;30214;52.246;14.408;2023-06-10T09:26:00;24.20;78.40
44509;DHT22;30214;52.246;14.408;2023-06-10T09:28:31;24.20;80.30
44509;DHT22;30214;52.246;14.408;2023-06-10T09:31:04;24.20;78.10
44509;DHT22;30214;52.246;14.408;2023-06-10T09:33:37;24.30;78.70
44509;DHT22;30214;52.246;14.408;2023-06-10T09:36:05;24.30;79.20
44509;DHT22;30214;52.246;14.408;2023-06-10T09:38:34;24.30;79.30
44509;DHT22;30214;52.246;14.408;2023-06-10T09:41:03;24.40;77.90
44509;DHT22;30214;52.246;14.408;2023-06-10T09:43:42;24.40;77.80
44509;DHT22;30214;52.246;14.408;2023-06-10T09:46:15;24.40;78.60
44509;DHT22;30214;52.246;14.408;2023-06-10T09:48:42;24.40;78.50
44509;DHT22;30214;52.246;14.408;2023-06-10T09:51:10;24.50;79.70
44509;DHT22;30214;52.246;14.408;2023-06-10T09:53:37;24.50;80.60
44509;DHT22;30214;52.246;14.408;2023-06-10T09:56:05;24.40;78.80
44509;DHT22;30214;52.246;14.408;2023-06-10T09:58:36;24.40;80.20
44509;DHT22;30214;52.246;14.408;2023-06-10T10:01:09;24.40;79.20
44509;DHT22;30214;52.246;14.408;2023-06-10T10:03:43;24.60;76.60
44509;DHT22;30214;52.246;14.408;2023-06-10T10:06:12;24.20;74.50
44509;DHT22;30214;52.246;14.408;2023-06-10T10:08:45;24.10;76.50
44509;DHT22;30214;52.246;14.408;2023-06-10T10:11:12;23.90;77.60
44509;DHT22;30214;52.246;14.408;2023-06-10T10:13:41;23.90;78.90
44509;DHT22;30214;52.246;14.408;2023-06-10T10:16:11;23.90;78.40
44509;DHT22;30214;52.246;14.408;2023-06-10T10:18:40;24.00;79.00
44509;DHT22;30214;52.246;14.408;2023-06-10T10:21:12;24.10;77.20
44509;DHT22;30214;52.246;14.408;2023-06-10T10:23:44;24.50;79.60
44509;DHT22;30214;52.246;14.408;2023-06-10T10:26:14;25.10;76.30
44509;DHT22;30214;52.246;14.408;2023-06-10T10:28:48;25.50;75.20
44509;DHT22;30214;52.246;14.408;2023-06-10T10:31:19;25.70;74.00
44509;DHT22;30214;52.246;14.408;2023-06-10T10:33:52;25.50;70.10
44509;DHT22;30214;52.246;14.408;2023-06-10T10:36:22;25.30;72.80
44509;DHT22;30214;52.246;14.408;2023-06-10T10:38:49;25.30;76.50
44509;DHT22;30214;52.246;14.408;2023-06-10T10:41:16;25.60;73.10
44509;DHT22;30214;52.246;14.408;2023-06-10T10:43:45;25.60;72.60
44509;DHT22;30214;52.246;14.408;2023-06-10T10:46:14;25.30;73.30
44509;DHT22;30214;52.246;14.408;2023-06-10T10:48:44;25.10;76.10
44509;DHT22;30214;52.246;14.408;2023-06-10T10:51:11;25.20;73.50
44509;DHT22;30214;52.246;14.408;2023-06-10T10:53:38;25.40;74.70
44509;DHT22;30214;52.246;14.408;2023-06-10T10:56:06;25.20;73.70
44509;DHT22;30214;52.246;14.408;2023-06-10T10:58:34;25.30;75.90
44509;DHT22;30214;52.246;14.408;2023-06-10T11:01:10;25.50;75.50
44509;DHT22;30214;52.246;14.408;2023-06-10T11:03:44;25.70;76.80
44509;DHT22;30214;52.246;14.408;2023-06-10T11:06:13;25.70;76.90
44509;DHT22;30214;52.246;14.408;2023-06-10T11:08:49;25.70;78.30
44509;DHT22;30214;52.246;14.408;2023-06-10T11:11:21;25.80;75.70
44509;DHT22;30214;52.246;14.408;2023-06-10T11:14:07;25.80;76.00
44509;DHT22;30214;52.246;14.408;2023-06-10T11:16:40;25.80;74.70
44509;DHT22;30214;52.246;14.408;2023-06-10T11:19:09;25.70;73.40
44509;DHT22;30214;52.246;14.408;2023-06-10T11:21:57;25.60;75.00
44509;DHT22;30214;52.246;14.408;2023-06-10T11:24:25;25.70;76.90
44509;DHT22;30214;52.246;14.408;2023-06-10T11:26:52;25.90;77.70
44509;DHT22;30214;52.246;14.408;2023-06-10T11:29:19;26.10;75.60
44509;DHT22;30214;52.246;14.408;2023-06-10T11:31:50;26.30;74.80
44509;DHT22;30214;52.246;14.408;2023-06-10T11:34:25;26.30;77.60
44509;DHT22;30214;52.246;14.408;2023-06-10T11:36:53;26.20;77.00
44509;DHT22;30214;52.246;14.408;2023-06-10T11:39:20;26.40;76.60
44509;DHT22;30214;52.246;14.408;2023-06-10T11:41:50;26.50;75.80
44509;DHT22;30214;52.246;14.408;2023-06-10T11:44:18;26.60;74.60
44509;DHT22;30214;52.246;14.408;2023-06-10T11:46:47;26.90;73.20
44509;DHT22;30214;52.246;14.408;2023-06-10T11:49:14;27.00;74.20
44509;DHT22;30214;52.246;14.408;2023-06-10T11:51:43;26.90;73.90
44509;DHT22;30214;52.246;14.408;2023-06-10T11:54:15;26.90;74.60
44509;DHT22;30214;52.246;14.408;2023-06-10T11:56:43;27.00;72.10
44509;DHT22;30214;52.246;14.408;2023-06-10T11:59:10;27.00;72.10
44509;DHT22;30214;52.246;14.408;2023-06-10T12:01:38;26.90;71.90
44509;DHT22;30214;52.246;14.408;2023-06-10T12:04:09;27.00;72.40
44509;DHT22;30214;52.246;14.408;2023-06-10T12:06:41;26.90;72.70
44509;DHT22;30214;52.246;14.408;2023-06-10T12:09:15;26.80;74.60
44509;DHT22;30214;52.246;14.408;2023-06-10T12:11:42;27.10;74.00
44509;DHT22;30214;52.246;14.408;2023-06-10T12:14:10;27.20;70.40
44509;DHT22;30214;52.246;14.408;2023-06-10T12:16:37;27.40;72.30
44509;DHT22;30214;52.246;14.408;2023-06-10T12:19:04;27.30;69.90
44509;DHT22;30214;52.246;14.408;2023-06-10T12:21:33;27.30;69.00
44509;DHT22;30214;52.246;14.408;2023-06-10T12:24:06;27.20;72.50
44509;DHT22;30214;52.246;14.408;2023-06-10T12:26:39;27.30;68.80
44509;DHT22;30214;52.246;14.408;2023-06-10T12:29:19;27.40;70.10
44509;DHT22;30214;52.246;14.408;2023-06-10T12:31:55;27.50;67.70
44509;DHT22;30214;52.246;14.408;2023-06-10T12:34:34;27.60;67.90
44509;DHT22;30214;52.246;14.408;2023-06-10T12:37:03;27.30;63.90
44509;DHT22;30214;52.246;14.408;2023-06-10T12:39:32;27.30;64.60
44509;DHT22;30214;52.246;14.408;2023-06-10T12:42:01;27.50;64.00
44509;DHT22;30214;52.246;14.408;2023-06-10T12:44:35;27.60;64.40
44509;DHT22;30214;52.246;14.408;2023-06-10T12:47:08;27.60;63.90
44509;DHT22;30214;52.246;14.408;2023-06-10T12:49:38;27.90;65.20
44509;DHT22;30214;52.246;14.408;2023-06-10T12:52:06;28.00;62.30
44509;DHT22;30214;52.246;14.408;2023-06-10T12:54:33;27.90;63.60
44509;DHT22;30214;52.246;14.408;2023-06-10T12:57:02;27.70;62.80
44509;DHT22;30214;52.246;14.408;2023-06-10T12:59:28;27.40;59.40
44509;DHT22;30214;52.246;14.408;2023-06-10T13:01:57;27.40;63.10
44509;DHT22;30214;52.246;14.408;2023-06-10T13:04:24;27.70;62.30
44509;DHT22;30214;52.246;14.408;2023-06-10T13:06:51;27.90;63.00
44509;DHT22;30214;52.246;14.408;2023-06-10T13:09:17;28.00;57.90
44509;DHT22;30214;52.246;14.408;2023-06-10T13:11:45;27.90;60.10
44509;DHT22;30214;52.246;14.408;2023-06-10T13:14:13;27.90;56.40
44509;DHT22;30214;52.246;14.408;2023-06-10T13:16:40;28.00;57.50
44509;DHT22;30214;52.246;14.408;2023-06-10T13:19:09;27.70;58.20
44509;DHT22;30214;52.246;14.408;2023-06-10T13:21:36;27.60;57.40
44509;DHT22;30214;52.246;14.408;2023-06-10T13:24:04;27.80;59.00
44509;DHT22;30214;52.246;14.408;2023-06-10T13:26:31;28.00;57.10
44509;DHT22;30214;52.246;14.408;2023-06-10T13:28:58;28.20;56.60
44509;DHT22;30214;52.246;14.408;2023-06-10T13:31:27;28.20;55.00
44509;DHT22;30214;52.246;14.408;2023-06-10T13:33:54;27.80;54.60
44509;DHT22;30214;52.246;14.408;2023-06-10T13:36:21;27.40;56.70
44509;DHT22;30214;52.246;14.408;2023-06-10T13:38:48;27.30;55.70
44509;DHT22;30214;52.246;14.408;2023-06-10T13:41:15;27.40;55.70
44509;DHT22;30214;52.246;14.408;2023-06-10T13:43:42;27.70;57.90
44509;DHT22;30214;52.246;14.408;2023-06-10T13:46:08;28.00;56.80
44509;DHT22;30214;52.246;14.408;2023-06-10T13:48:37;28.10;54.90
44509;DHT22;30214;52.246;14.408;2023-06-10T13:51:04;28.10;54.20
44509;DHT22;30214;52.246;14.408;2023-06-10T13:53:31;28.10;54.30
44509;DHT22;30214;52.246;14.408;2023-06-10T13:56:00;28.10;53.60
44509;DHT22;30214;52.246;14.408;2023-06-10T13:58:26;28.20;55.90
44509;DHT22;30214;52.246;14.408;2023-06-10T14:00:53;28.30;53.40
44509;DHT22;30214;52.246;14.408;2023-06-10T14:03:21;28.40;52.90
44509;DHT22;30214;52.246;14.408;2023-06-10T14:05:51;28.40;56.10
44509;DHT22;30214;52.246;14.408;2023-06-10T14:08:20;28.30;56.40
44509;DHT22;30214;52.246;14.408;2023-06-10T14:10:48;28.20;57.70
44509;DHT22;30214;52.246;14.408;2023-06-10T14:13:16;28.20;59.00
44509;DHT22;30214;52.246;14.408;2023-06-10T14:15:44;28.30;58.20
44509;DHT22;30214;52.246;14.408;2023-06-10T14:18:11;28.40;58.60
44509;DHT22;30214;52.246;14.408;2023-06-10T14:20:39;28.40;58.20
44509;DHT22;30214;52.246;14.408;2023-06-10T14:23:07;28.00;55.80
44509;DHT22;30214;52.246;14.408;2023-06-10T14:25:34;27.50;54.90
44509;DHT22;30214;52.246;14.408;2023-06-10T14:28:02;27.30;56.20
44509;DHT22;30214;52.246;14.408;2023-06-10T14:30:29;27.30;55.90
44509;DHT22;30214;52.246;14.408;2023-06-10T14:32:56;27.50;55.20
44509;DHT22;30214;52.246;14.408;2023-06-10T14:35:23;27.70;55.10
44509;DHT22;30214;52.246;14.408;2023-06-10T14:37:50;28.00;52.60
44509;DHT22;30214;52.246;14.408;2023-06-10T14:40:19;28.00;53.60
44509;DHT22;30214;52.246;14.408;2023-06-10T14:42:47;27.80;54.40
44509;DHT22;30214;52.246;14.408;2023-06-10T14:45:15;27.50;56.10
44509;DHT22;30214;52.246;14.408;2023-06-10T14:47:43;27.60;56.30
44509;DHT22;30214;52.246;14.408;2023-06-10T14:50:10;27.40;53.20
44509;DHT22;30214;52.246;14.408;2023-06-10T14:52:37;26.90;55.70
44509;DHT22;30214;52.246;14.408;2023-06-10T14:55:06;26.50;56.20
44509;DHT22;30214;52.246;14.408;2023-06-10T14:57:36;26.30;55.90
44509;DHT22;30214;52.246;14.408;2023-06-10T15:00:07;26.30;54.60
44509;DHT22;30214;52.246;14.408;2023-06-10T15:02:39;26.60;55.90
44509;DHT22;30214;52.246;14.408;2023-06-10T15:05:07;26.70;54.00
44509;DHT22;30214;52.246;14.408;2023-06-10T15:07:35;26.90;57.10
44509;DHT22;30214;52.246;14.408;2023-06-10T15:10:07;27.00;54.40
44509;DHT22;30214;52.246;14.408;2023-06-10T15:12:37;27.00;54.60
44509;DHT22;30214;52.246;14.408;2023-06-10T15:15:06;27.00;55.20
44509;DHT22;30214;52.246;14.408;2023-06-10T15:17:35;27.00;54.40
44509;DHT22;30214;52.246;14.408;2023-06-10T15:20:06;27.20;55.00
44509;DHT22;30214;52.246;14.408;2023-06-10T15:22:38;27.10;56.20
44509;DHT22;30214;52.246;14.408;2023-06-10T15:25:07;27.10;53.80